Time;durP1;ratioP1;P1;durP2;ratioP2;P2;SDS_P1;SDS_P2;PMS_P1;PMS_P2;Temp;Humidity;BMP_temperature;BMP_pressure;BME280_temperature;BME280_humidity;BME280_pressure;Samples;Min_cycle;Max_cycle;Signal;HPM_P1;HPM_P2
2023/08/21 00:01:03;;;;;;;5.70;5.20;;;30.80;72.20;;;;;;5002362;28;20022;-79
2023/08/21 00:03:29;;;;;;;5.90;5.25;;;30.70;72.10;;;;;;4997029;28;20084;-78
2023/08/21 00:05:55;;;;;;;6.78;5.93;;;30.70;72.10;;;;;;4996047;28;20029;-83
2023/08/21 00:08:21;;;;;;;7.93;5.30;;;30.80;72.10;;;;;;4997738;28;20034;-81
2023/08/21 00:10:47;;;;;;;10.63;6.07;;;30.70;72.10;;;;;;4997222;28;20376;-80
2023/08/21 00:13:13;;;;;;;7.72;5.20;;;30.70;72.30;;;;;;5011668;28;20386;-83
2023/08/21 00:15:41;;;;;;;6.32;5.72;;;30.70;72.20;;;;;;5014243;28;20053;-81
2023/08/21 00:18:07;;;;;;;6.07;5.53;;;30.70;72.60;;;;;;4998836;28;20030;-83
2023/08/21 00:20:33;;;;;;;6.20;5.55;;;30.70;72.90;;;;;;4997354;28;20024;-82
2023/08/21 00:22:59;;;;;;;6.72;5.70;;;30.60;73.10;;;;;;4997808;28;20113;-83
2023/08/21 00:25:25;;;;;;;8.98;5.55;;;30.60;73.40;;;;;;4997588;28;20465;-83
2023/08/21 00:27:50;;;;;;;6.50;5.80;;;30.60;73.60;;;;;;4997610;28;20089;-83
2023/08/21 00:30:16;;;;;;;6.95;6.05;;;30.60;73.60;;;;;;5007390;28;20037;-82
2023/08/21 00:32:42;;;;;;;7.15;5.72;;;30.60;73.60;;;;;;5017366;28;20470;-83
2023/08/21 00:35:07;;;;;;;6.88;5.90;;;30.60;73.60;;;;;;5017035;28;20018;-83
2023/08/21 00:37:33;;;;;;;8.23;6.05;;;30.50;73.90;;;;;;5017443;28;20088;-81
2023/08/21 00:39:59;;;;;;;7.90;5.70;;;30.50;74.00;;;;;;5008381;28;20015;-81
2023/08/21 00:42:24;;;;;;;6.57;5.97;;;30.50;73.90;;;;;;4996488;28;20391;-80
2023/08/21 00:44:50;;;;;;;6.45;5.85;;;30.50;73.90;;;;;;4979840;28;20038;-81
2023/08/21 00:47:16;;;;;;;7.22;6.07;;;30.40;73.90;;;;;;4997395;28;20124;-81
2023/08/21 00:49:42;;;;;;;6.78;5.93;;;30.40;74.00;;;;;;4997074;28;20120;-81
2023/08/21 00:52:10;;;;;;;6.80;5.80;;;30.40;74.10;;;;;;4996874;28;20041;-78
2023/08/21 00:54:37;;;;;;;7.80;5.82;;;30.40;74.20;;;;;;4996692;28;20038;-79
2023/08/21 00:57:02;;;;;;;7.40;6.25;;;30.30;74.50;;;;;;4996674;28;20026;-79
2023/08/21 00:59:29;;;;;;;7.68;6.47;;;30.20;74.40;;;;;;4996669;28;20386;-79
2023/08/21 01:01:55;;;;;;;7.25;6.47;;;30.20;74.50;;;;;;4996267;28;20447;-78
2023/08/21 01:04:21;;;;;;;6.43;5.50;;;30.20;74.80;;;;;;4996640;28;20036;-78
2023/08/21 01:06:49;;;;;;;6.70;6.00;;;30.20;74.80;;;;;;4996420;28;20026;-79
2023/08/21 01:09:45;;;;;;;7.32;5.82;;;30.10;75.00;;;;;;4995688;28;20035;-79
2023/08/21 01:12:43;;;;;;;6.93;5.85;;;30.10;75.10;;;;;;4990591;28;20041;-79
2023/08/21 01:15:09;;;;;;;7.88;7.07;;;30.10;75.40;;;;;;4996727;28;20439;-80
2023/08/21 01:17:37;;;;;;;6.20;5.60;;;30.00;75.60;;;;;;4995781;28;20065;-79
2023/08/21 01:20:06;;;;;;;6.68;5.80;;;29.90;75.90;;;;;;4978518;28;20030;-78
2023/08/21 01:22:36;;;;;;;6.28;5.70;;;29.90;76.40;;;;;;4994578;28;20379;-79
2023/08/21 01:25:04;;;;;;;7.40;6.70;;;29.70;76.80;;;;;;4995877;28;20041;-79
2023/08/21 01:27:30;;;;;;;7.15;5.95;;;29.70;76.80;;;;;;4995253;28;20101;-80
2023/08/21 01:29:56;;;;;;;7.07;6.45;;;29.60;77.10;;;;;;4998413;28;20080;-79
2023/08/21 01:32:32;;;;;;;7.35;6.32;;;29.60;77.20;;;;;;4998614;28;20034;-80
2023/08/21 01:34:59;;;;;;;6.82;5.80;;;29.60;77.40;;;;;;4992394;28;20042;-79
2023/08/21 01:37:26;;;;;;;8.60;6.28;;;29.60;77.40;;;;;;4995831;28;20026;-80
2023/08/21 01:39:52;;;;;;;6.82;6.20;;;29.60;77.20;;;;;;4997225;28;20093;-79
2023/08/21 01:42:17;;;;;;;7.32;6.22;;;29.60;77.20;;;;;;4980120;28;20034;-82
2023/08/21 01:44:45;;;;;;;9.90;6.15;;;29.60;77.20;;;;;;4995900;28;20038;-81
2023/08/21 01:47:12;;;;;;;6.43;5.82;;;29.60;77.20;;;;;;4995830;28;20458;-82
2023/08/21 01:49:37;;;;;;;6.78;6.15;;;29.60;77.10;;;;;;4995816;28;20035;-81
2023/08/21 01:52:03;;;;;;;6.88;6.18;;;29.50;77.20;;;;;;5002231;28;20030;-82
2023/08/21 01:54:29;;;;;;;6.75;5.82;;;29.50;77.20;;;;;;4995012;28;20037;-83
2023/08/21 01:56:55;;;;;;;7.55;6.38;;;29.50;77.40;;;;;;5005261;28;20027;-80
2023/08/21 01:59:21;;;;;;;7.28;6.25;;;29.50;77.50;;;;;;5006242;28;20080;-78
2023/08/21 02:01:47;;;;;;;7.07;6.07;;;29.50;77.50;;;;;;4994842;28;20475;-79
2023/08/21 02:04:12;;;;;;;7.40;5.65;;;29.40;77.30;;;;;;4995695;28;20050;-77
2023/08/21 02:06:38;;;;;;;6.95;5.65;;;29.40;77.50;;;;;;4995549;28;20113;-77
2023/08/21 02:09:04;;;;;;;8.00;6.60;;;29.40;77.70;;;;;;5003519;28;20054;-77
2023/08/21 02:11:29;;;;;;;9.23;6.32;;;29.30;77.60;;;;;;4996183;28;20522;-77
2023/08/21 02:13:55;;;;;;;6.10;5.50;;;29.30;77.70;;;;;;4995181;28;20402;-77
2023/08/21 02:16:21;;;;;;;8.20;5.78;;;29.30;77.70;;;;;;5002315;28;20046;-78
2023/08/21 02:18:47;;;;;;;6.88;6.18;;;29.30;77.70;;;;;;5002682;28;20076;-78
2023/08/21 02:21:13;;;;;;;9.88;5.78;;;29.30;77.70;;;;;;4978554;28;20121;-77
2023/08/21 02:23:39;;;;;;;7.53;5.20;;;29.30;77.80;;;;;;4995215;28;20105;-77
2023/08/21 02:26:05;;;;;;;6.72;6.05;;;29.30;77.80;;;;;;4994632;28;20041;-77
2023/08/21 02:28:30;;;;;;;6.90;5.50;;;29.40;77.90;;;;;;4998079;28;20497;-77
2023/08/21 02:30:56;;;;;;;6.60;5.50;;;29.30;77.70;;;;;;4998677;28;20046;-77
2023/08/21 02:33:21;;;;;;;6.50;5.88;;;29.30;77.80;;;;;;4994881;28;20030;-78
2023/08/21 02:35:47;;;;;;;7.90;5.85;;;29.30;77.70;;;;;;4994906;28;20462;-77
2023/08/21 02:38:13;;;;;;;8.43;6.03;;;29.30;77.90;;;;;;4995091;28;20514;-80
2023/08/21 02:40:38;;;;;;;8.27;6.00;;;29.30;77.90;;;;;;4994924;28;20467;-79
2023/08/21 02:43:04;;;;;;;7.80;6.18;;;29.20;78.00;;;;;;4992716;28;20023;-79
2023/08/21 02:45:30;;;;;;;6.18;5.28;;;29.20;78.00;;;;;;4979086;28;20437;-81
2023/08/21 02:47:56;;;;;;;7.20;6.15;;;29.20;78.10;;;;;;4994740;28;20502;-81
2023/08/21 02:50:22;;;;;;;6.20;5.60;;;29.10;78.00;;;;;;5002584;28;20038;-81
2023/08/21 02:52:47;;;;;;;6.63;5.97;;;29.10;78.00;;;;;;4994390;28;20022;-82
2023/08/21 02:55:14;;;;;;;6.68;5.82;;;29.10;77.90;;;;;;4994377;28;20038;-80
2023/08/21 02:57:40;;;;;;;9.70;6.25;;;29.10;77.90;;;;;;4994393;28;20027;-79
2023/08/21 03:00:07;;;;;;;6.28;5.68;;;29.10;77.80;;;;;;4994144;28;20435;-80
2023/08/21 03:02:33;;;;;;;6.13;5.53;;;29.10;77.70;;;;;;4993748;28;20463;-78
2023/08/21 03:04:59;;;;;;;6.55;5.55;;;29.10;77.70;;;;;;4591713;23;20110;-80
2023/08/21 03:07:25;;;;;;;6.53;5.88;;;29.10;77.60;;;;;;4986262;28;20367;-80
2023/08/21 03:09:50;;;;;;;6.22;5.40;;;29.10;77.60;;;;;;4984483;28;20038;-80
2023/08/21 03:12:16;;;;;;;6.50;5.72;;;29.00;77.40;;;;;;4984143;28;20023;-80
2023/08/21 03:14:42;;;;;;;6.13;5.43;;;29.00;77.40;;;;;;4975553;28;20034;-80
2023/08/21 03:17:08;;;;;;;5.65;5.10;;;29.00;77.40;;;;;;4970337;28;20022;-80
2023/08/21 03:19:35;;;;;;;6.63;5.78;;;29.00;77.30;;;;;;4971754;28;20418;-80
2023/08/21 03:22:01;;;;;;;8.25;5.82;;;29.00;77.30;;;;;;4978676;28;20031;-81
2023/08/21 03:24:26;;;;;;;6.20;5.30;;;29.00;77.20;;;;;;4993559;28;20023;-82
2023/08/21 03:26:53;;;;;;;6.40;5.85;;;29.00;77.00;;;;;;4994786;28;20370;-82
2023/08/21 03:29:19;;;;;;;7.20;5.47;;;29.00;77.00;;;;;;4992440;28;20030;-82
2023/08/21 03:31:49;;;;;;;9.00;5.78;;;29.00;77.00;;;;;;4977353;28;20471;-82
2023/08/21 03:34:14;;;;;;;6.10;4.88;;;29.00;77.00;;;;;;4989056;28;20031;-82
2023/08/21 03:36:40;;;;;;;7.15;5.65;;;29.00;77.00;;;;;;4975079;28;20466;-82
2023/08/21 03:39:06;;;;;;;6.50;5.60;;;29.00;76.90;;;;;;4979854;28;20038;-82
2023/08/21 03:41:31;;;;;;;5.90;5.38;;;29.00;76.90;;;;;;4993829;28;20815;-82
2023/08/21 03:43:57;;;;;;;6.05;5.45;;;29.00;76.90;;;;;;4992197;28;20436;-82
2023/08/21 03:46:23;;;;;;;6.00;5.43;;;29.00;76.90;;;;;;4984340;28;20031;-82
2023/08/21 03:48:50;;;;;;;6.22;5.63;;;29.00;76.90;;;;;;4981546;28;20144;-82
2023/08/21 03:51:16;;;;;;;6.47;5.65;;;28.90;76.80;;;;;;4960014;28;20166;-82
2023/08/21 03:53:42;;;;;;;5.90;5.30;;;29.00;76.90;;;;;;4958905;28;20125;-82
2023/08/21 03:56:07;;;;;;;5.68;5.18;;;29.00;76.80;;;;;;4974508;28;20035;-80
2023/08/21 03:58:33;;;;;;;6.03;5.43;;;29.00;76.90;;;;;;4973090;28;20027;-81
2023/08/21 04:01:00;;;;;;;5.82;5.22;;;29.00;76.70;;;;;;4991176;28;20544;-82
2023/08/21 04:03:26;;;;;;;7.03;5.72;;;29.00;76.70;;;;;;4993583;28;20030;-82
2023/08/21 04:05:54;;;;;;;6.63;5.53;;;29.00;76.50;;;;;;4981412;28;20054;-82
2023/08/21 04:08:20;;;;;;;6.15;5.63;;;29.00;76.50;;;;;;4973610;28;20482;-80
2023/08/21 04:10:46;;;;;;;6.25;5.55;;;29.00;76.30;;;;;;4992714;28;20093;-80
2023/08/21 04:13:11;;;;;;;6.53;5.30;;;29.00;76.30;;;;;;4980148;28;20031;-81
2023/08/21 04:15:48;;;;;;;5.22;4.72;;;29.00;76.20;;;;;;4974184;28;20031;-80
2023/08/21 04:18:13;;;;;;;8.80;5.18;;;29.00;76.00;;;;;;4979714;28;20058;-79
2023/08/21 04:20:39;;;;;;;7.70;5.28;;;29.00;76.00;;;;;;4969937;28;20061;-78
2023/08/21 04:23:05;;;;;;;6.90;5.85;;;29.00;75.90;;;;;;4981833;28;20030;-78
2023/08/21 04:25:31;;;;;;;7.13;6.50;;;28.90;76.30;;;;;;4973956;28;20097;-78
2023/08/21 04:27:56;;;;;;;8.52;5.35;;;28.80;75.80;;;;;;4973175;28;20027;-79
2023/08/21 04:30:22;;;;;;;6.20;5.60;;;28.80;76.00;;;;;;4986654;28;20537;-80
2023/08/21 04:32:51;;;;;;;9.40;6.53;;;28.80;76.10;;;;;;4979836;28;20034;-81
2023/08/21 04:35:17;;;;;;;6.97;5.30;;;28.80;76.20;;;;;;4973727;28;20054;-80
2023/08/21 04:37:45;;;;;;;7.05;4.90;;;28.80;76.40;;;;;;4992039;28;20034;-79
2023/08/21 04:40:12;;;;;;;6.63;5.47;;;28.70;76.50;;;;;;4993436;28;20022;-81
2023/08/21 04:42:38;;;;;;;6.55;5.85;;;28.70;76.60;;;;;;4993391;28;20479;-83
2023/08/21 04:45:05;;;;;;;6.93;6.22;;;28.70;77.10;;;;;;4988706;28;20031;-81
2023/08/21 04:47:31;;;;;;;6.60;5.80;;;28.70;76.90;;;;;;5009559;28;20030;-81
2023/08/21 04:49:57;;;;;;;6.55;5.57;;;28.70;76.80;;;;;;4993133;28;20062;-80
2023/08/21 04:52:24;;;;;;;6.40;5.80;;;28.70;76.80;;;;;;4985107;28;20038;-79
2023/08/21 04:54:50;;;;;;;6.55;5.85;;;28.80;76.80;;;;;;4975948;28;20435;-78
2023/08/21 04:57:17;;;;;;;7.80;6.10;;;28.70;76.90;;;;;;4977376;28;20526;-80
2023/08/21 04:59:43;;;;;;;7.97;6.20;;;28.80;77.00;;;;;;4972972;28;20042;-79
2023/08/21 05:02:09;;;;;;;7.93;5.68;;;28.80;77.00;;;;;;4999603;28;20034;-79
2023/08/21 05:04:36;;;;;;;6.75;5.55;;;28.70;77.00;;;;;;4998719;28;20057;-79
2023/08/21 05:07:02;;;;;;;7.75;5.63;;;28.70;77.10;;;;;;4994604;28;20030;-79
2023/08/21 05:09:28;;;;;;;7.63;5.85;;;28.80;77.20;;;;;;4980359;28;20030;-81
2023/08/21 05:11:55;;;;;;;8.32;5.95;;;28.70;77.10;;;;;;4996269;28;20023;-82
2023/08/21 05:14:21;;;;;;;11.68;6.43;;;28.70;77.20;;;;;;4978395;28;20089;-83
2023/08/21 05:16:48;;;;;;;8.77;5.93;;;28.70;77.10;;;;;;4985023;28;20057;-83
2023/08/21 05:19:14;;;;;;;6.07;5.47;;;28.80;77.30;;;;;;4980970;28;20034;-83
2023/08/21 05:21:40;;;;;;;8.57;5.88;;;28.80;77.20;;;;;;4981304;28;20097;-82
2023/08/21 05:24:06;;;;;;;6.85;5.68;;;28.80;77.60;;;;;;4988857;28;20027;-82
2023/08/21 05:26:31;;;;;;;6.18;5.68;;;28.80;77.60;;;;;;4986436;28;20438;-84
2023/08/21 05:28:57;;;;;;;6.85;5.72;;;28.90;77.90;;;;;;4986856;28;20131;-83
2023/08/21 05:31:22;;;;;;;7.15;6.18;;;28.90;77.80;;;;;;4976972;28;20038;-83
2023/08/21 05:33:48;;;;;;;6.18;5.57;;;28.90;77.70;;;;;;4993691;28;20371;-80
2023/08/21 05:36:14;;;;;;;7.13;6.22;;;28.90;77.70;;;;;;4977670;28;20379;-81
2023/08/21 05:38:40;;;;;;;6.80;6.10;;;29.00;77.60;;;;;;4984079;28;20066;-80
2023/08/21 05:41:06;;;;;;;7.05;6.13;;;29.00;77.50;;;;;;4988334;28;20406;-79
2023/08/21 05:43:31;;;;;;;7.93;6.07;;;29.00;77.60;;;;;;4983914;28;20028;-80
2023/08/21 05:45:57;;;;;;;7.75;5.82;;;29.00;77.70;;;;;;4976490;28;20027;-79
2023/08/21 05:48:23;;;;;;;6.88;5.70;;;29.00;78.00;;;;;;4992513;28;20058;-80
2023/08/21 05:50:52;;;;;;;6.90;6.20;;;29.00;78.00;;;;;;4991071;28;20474;-81
2023/08/21 05:53:18;;;;;;;6.70;6.10;;;29.00;78.00;;;;;;4973497;28;20030;-84
2023/08/21 05:55:44;;;;;;;6.78;6.10;;;29.00;77.70;;;;;;4991403;28;20038;-79
2023/08/21 05:58:10;;;;;;;7.00;5.72;;;29.00;77.60;;;;;;4986797;28;20387;-80
2023/08/21 06:00:38;;;;;;;7.35;6.03;;;29.00;77.60;;;;;;4986904;28;20105;-79
2023/08/21 06:03:03;;;;;;;7.10;6.05;;;28.90;77.60;;;;;;4993002;28;20034;-81
2023/08/21 06:05:30;;;;;;;7.13;5.90;;;28.90;77.80;;;;;;4993195;28;20053;-78
2023/08/21 06:07:55;;;;;;;6.68;5.95;;;28.80;78.00;;;;;;4988870;28;20073;-91
2023/08/21 06:10:21;;;;;;;6.97;6.30;;;28.80;78.20;;;;;;4969588;28;20058;-82
2023/08/21 06:12:48;;;;;;;6.68;6.03;;;28.80;78.40;;;;;;4996492;28;20049;-82
2023/08/21 06:15:13;;;;;;;7.88;6.25;;;28.80;78.60;;;;;;4990637;28;20414;-80
2023/08/21 06:17:40;;;;;;;10.32;6.82;;;28.80;78.60;;;;;;4992285;28;20053;-80
2023/08/21 06:20:08;;;;;;;13.60;6.47;;;28.80;79.00;;;;;;4992213;28;20041;-80
2023/08/21 06:22:34;;;;;;;6.15;5.55;;;28.80;78.70;;;;;;4984616;28;20065;-83
2023/08/21 06:25:00;;;;;;;7.15;6.47;;;28.90;78.80;;;;;;4992545;28;20057;-79
2023/08/21 06:27:26;;;;;;;7.63;5.95;;;28.90;79.00;;;;;;4993194;28;20068;-82
2023/08/21 06:29:51;;;;;;;6.20;5.43;;;29.00;78.90;;;;;;4993422;28;20041;-81
2023/08/21 06:32:17;;;;;;;7.45;5.57;;;29.00;78.80;;;;;;4992774;28;20038;-81
2023/08/21 06:34:43;;;;;;;13.15;6.70;;;29.00;78.40;;;;;;4994947;28;20049;-85
2023/08/21 06:37:09;;;;;;;7.95;6.13;;;29.00;78.10;;;;;;4994960;28;20113;-81
2023/08/21 06:39:35;;;;;;;7.50;5.93;;;29.10;78.40;;;;;;4995064;28;20029;-80
2023/08/21 06:42:01;;;;;;;6.38;5.70;;;29.10;78.10;;;;;;4985094;28;20031;-79
2023/08/21 06:44:27;;;;;;;7.20;5.80;;;29.10;78.20;;;;;;4993248;28;20076;-78
2023/08/21 06:46:53;;;;;;;6.20;5.53;;;29.20;78.40;;;;;;4985184;28;20034;-78
2023/08/21 06:49:18;;;;;;;6.55;5.28;;;29.20;78.30;;;;;;4982667;28;20065;-78
2023/08/21 06:51:44;;;;;;;6.55;5.85;;;29.30;78.20;;;;;;4984910;28;20453;-86
2023/08/21 06:54:10;;;;;;;8.88;5.85;;;29.40;78.10;;;;;;4991338;28;20026;-78
2023/08/21 06:56:36;;;;;;;6.80;5.50;;;29.40;78.00;;;;;;4980214;28;20039;-78
2023/08/21 06:59:02;;;;;;;7.45;6.00;;;29.40;77.90;;;;;;4974411;28;20037;-77
2023/08/21 07:01:28;;;;;;;6.22;5.55;;;29.50;77.60;;;;;;4981739;28;20102;-78
2023/08/21 07:03:54;;;;;;;6.55;5.88;;;29.60;77.50;;;;;;4989075;28;20021;-78
2023/08/21 07:06:20;;;;;;;7.88;5.93;;;29.70;77.40;;;;;;4977399;28;20468;-84
2023/08/21 07:08:48;;;;;;;6.20;5.60;;;29.70;77.30;;;;;;4976922;28;20056;-82
2023/08/21 07:11:14;;;;;;;11.30;6.18;;;29.80;77.20;;;;;;4975139;28;20033;-78
2023/08/21 07:13:40;;;;;;;10.70;6.80;;;29.90;77.10;;;;;;4974110;28;20034;-78
2023/08/21 07:16:06;;;;;;;6.68;5.47;;;29.90;76.60;;;;;;4973206;28;20072;-78
2023/08/21 07:18:35;;;;;;;6.32;5.35;;;29.90;76.00;;;;;;4975162;28;20081;-78
2023/08/21 07:21:04;;;;;;;7.18;5.65;;;30.00;76.00;;;;;;4971662;28;20023;-78
2023/08/21 07:23:31;;;;;;;6.35;5.45;;;30.00;76.10;;;;;;4974776;28;20487;-78
2023/08/21 07:25:58;;;;;;;7.47;5.53;;;30.00;75.90;;;;;;4974391;28;20037;-78
2023/08/21 07:28:24;;;;;;;8.07;5.50;;;30.10;75.90;;;;;;4973442;28;20382;-78
2023/08/21 07:31:00;;;;;;;8.93;6.63;;;30.20;75.70;;;;;;4957304;28;20122;-78
2023/08/21 07:33:27;;;;;;;9.82;5.90;;;30.20;75.40;;;;;;4974256;28;20039;-78
2023/08/21 07:36:04;;;;;;;8.02;6.90;;;30.20;75.20;;;;;;4967449;28;20046;-78
2023/08/21 07:38:31;;;;;;;6.57;5.80;;;30.30;75.30;;;;;;4974552;28;20034;-79
2023/08/21 07:41:09;;;;;;;6.65;5.40;;;30.30;75.50;;;;;;4974758;28;20035;-79
2023/08/21 07:43:36;;;;;;;8.02;5.93;;;30.30;75.50;;;;;;4974694;28;20025;-83
2023/08/21 07:46:07;;;;;;;5.80;5.05;;;30.30;75.20;;;;;;4974850;28;20031;-84
2023/08/21 07:48:33;;;;;;;7.60;5.85;;;30.40;75.30;;;;;;4974681;28;20035;-78
2023/08/21 07:50:59;;;;;;;9.23;5.28;;;30.40;75.70;;;;;;4974895;28;20349;-78
2023/08/21 07:53:26;;;;;;;7.60;6.30;;;30.50;75.60;;;;;;4974723;28;20038;-78
2023/08/21 07:55:52;;;;;;;6.82;5.47;;;30.50;75.20;;;;;;4987472;28;20030;-83
2023/08/21 07:58:18;;;;;;;6.75;5.65;;;30.60;75.10;;;;;;4978798;28;20031;-83
2023/08/21 08:00:44;;;;;;;6.70;6.00;;;30.70;75.30;;;;;;4973995;28;20030;-79
2023/08/21 08:03:11;;;;;;;9.57;7.28;;;30.70;74.30;;;;;;4984072;28;20077;-79
2023/08/21 08:05:38;;;;;;;6.20;5.60;;;30.80;73.80;;;;;;4972364;28;20058;-80
2023/08/21 08:08:04;;;;;;;11.57;5.95;;;30.80;73.50;;;;;;4986850;28;20026;-83
2023/08/21 08:10:30;;;;;;;6.03;5.25;;;30.90;73.80;;;;;;4990898;28;20061;-84
2023/08/21 08:12:56;;;;;;;7.30;5.53;;;31.00;73.70;;;;;;4990493;28;20479;-80
2023/08/21 08:15:23;;;;;;;5.35;4.35;;;31.10;73.40;;;;;;4992854;28;20037;-80
2023/08/21 08:17:53;;;;;;;7.45;5.80;;;31.20;74.00;;;;;;4991824;28;20054;-80
2023/08/21 08:20:18;;;;;;;;;;;31.30;73.10;;;;;;4993041;28;20026;-83
2023/08/21 08:22:44;;;;;;;7.75;5.90;;;31.30;72.50;;;;;;4991473;28;20377;-84
2023/08/21 08:25:10;;;;;;;8.63;6.13;;;31.40;72.40;;;;;;4993254;28;20528;-83
2023/08/21 08:27:36;;;;;;;8.95;6.50;;;31.50;71.80;;;;;;4995574;28;20026;-84
2023/08/21 08:30:03;;;;;;;5.80;4.80;;;31.50;71.30;;;;;;4997211;28;20114;-83
2023/08/21 08:32:29;;;;;;;10.18;4.90;;;31.50;71.80;;;;;;4977368;28;20035;-84
2023/08/21 08:34:55;;;;;;;5.25;4.60;;;31.70;72.00;;;;;;4981329;28;20026;-84
2023/08/21 08:37:20;;;;;;;6.07;5.30;;;31.80;71.60;;;;;;4997186;28;20780;-83
2023/08/21 08:39:47;;;;;;;5.60;5.10;;;31.80;70.10;;;;;;4993657;28;20053;-79
2023/08/21 08:42:14;;;;;;;6.10;5.45;;;31.90;68.70;;;;;;4992116;28;20492;-80
2023/08/21 08:44:42;;;;;;;6.10;5.40;;;32.00;68.30;;;;;;4994620;28;20069;-80
2023/08/21 08:47:10;;;;;;;6.05;4.45;;;32.00;68.60;;;;;;4976926;28;20114;-80
2023/08/21 08:49:36;;;;;;;6.07;4.82;;;32.10;69.30;;;;;;4993164;28;20030;-80
2023/08/21 08:52:02;;;;;;;6.47;4.85;;;32.30;69.20;;;;;;4992236;28;20030;-79
2023/08/21 08:54:30;;;;;;;5.60;4.70;;;32.40;67.90;;;;;;4989803;28;20045;-78
2023/08/21 08:56:56;;;;;;;5.93;5.32;;;32.50;68.30;;;;;;4982502;28;20031;-79
2023/08/21 08:59:22;;;;;;;14.93;5.50;;;32.60;67.70;;;;;;4986565;28;20019;-79
2023/08/21 09:01:48;;;;;;;5.68;4.22;;;32.70;67.20;;;;;;4977997;28;20033;-79
2023/08/21 09:04:14;;;;;;;6.45;4.70;;;32.80;67.70;;;;;;4990200;28;20050;-79
2023/08/21 09:06:40;;;;;;;5.18;4.68;;;32.90;66.90;;;;;;4994806;28;20486;-79
2023/08/21 09:09:07;;;;;;;8.27;4.80;;;33.00;65.60;;;;;;4991585;28;20041;-78
2023/08/21 09:11:34;;;;;;;4.40;4.00;;;33.10;65.00;;;;;;4995473;28;20030;-78
2023/08/21 09:14:00;;;;;;;12.65;5.45;;;33.20;64.80;;;;;;5001823;28;20510;-83
2023/08/21 09:16:26;;;;;;;7.22;4.15;;;33.30;64.20;;;;;;5000839;28;20152;-83
2023/08/21 09:19:00;;;;;;;4.43;4.03;;;33.40;65.10;;;;;;5013910;28;20037;-83
2023/08/21 09:21:28;;;;;;;4.25;3.85;;;33.50;64.80;;;;;;5005434;28;20116;-84
2023/08/21 09:23:59;;;;;;;4.43;4.00;;;33.50;64.70;;;;;;4989722;28;20038;-84
2023/08/21 09:26:26;;;;;;;4.68;4.28;;;33.60;63.80;;;;;;5005413;28;20131;-85
2023/08/21 09:28:52;;;;;;;4.38;3.97;;;33.80;63.60;;;;;;5001966;28;20029;-84
2023/08/21 09:31:30;;;;;;;7.25;4.03;;;33.90;63.40;;;;;;5006956;28;20034;-84
2023/08/21 09:34:05;;;;;;;6.85;4.43;;;34.00;62.10;;;;;;4999731;28;20030;-84
2023/08/21 09:36:31;;;;;;;7.35;5.18;;;34.10;61.70;;;;;;4996671;28;20375;-83
2023/08/21 09:38:57;;;;;;;5.75;4.43;;;34.10;61.50;;;;;;4995622;28;20054;-78
2023/08/21 09:41:24;;;;;;;5.75;4.45;;;34.30;61.90;;;;;;4993104;28;20133;-78
2023/08/21 09:43:50;;;;;;;6.50;4.72;;;34.40;62.00;;;;;;4996410;28;20026;-78
2023/08/21 09:46:25;;;;;;;5.05;4.15;;;34.50;61.10;;;;;;4996409;28;20040;-79
2023/08/21 09:48:53;;;;;;;4.32;3.92;;;34.60;60.90;;;;;;4996226;28;20030;-78
2023/08/21 09:51:19;;;;;;;4.38;3.83;;;34.70;60.90;;;;;;4991573;28;20383;-78
2023/08/21 09:53:45;;;;;;;5.38;4.88;;;34.80;60.70;;;;;;4987019;28;20027;-79
2023/08/21 09:56:12;;;;;;;4.65;4.25;;;34.80;60.50;;;;;;5003386;28;20080;-79
2023/08/21 09:58:38;;;;;;;5.65;4.32;;;34.90;61.10;;;;;;5002567;28;20061;-79
2023/08/21 10:01:14;;;;;;;5.95;3.90;;;35.00;59.60;;;;;;4994318;28;20066;-79
2023/08/21 10:03:42;;;;;;;6.13;4.57;;;35.10;59.70;;;;;;4995596;28;20030;-79
2023/08/21 10:06:11;;;;;;;5.03;4.53;;;35.20;58.90;;;;;;4976884;28;20134;-79
2023/08/21 10:08:40;;;;;;;4.10;3.65;;;35.30;59.00;;;;;;4957420;28;20537;-79
2023/08/21 10:11:08;;;;;;;4.05;3.72;;;35.40;59.30;;;;;;4972566;28;20031;-79
2023/08/21 10:13:36;;;;;;;3.95;3.65;;;35.40;58.40;;;;;;4957214;29;20384;-79
2023/08/21 10:16:03;;;;;;;4.22;3.83;;;35.50;58.20;;;;;;4970537;28;20074;-78
2023/08/21 10:18:33;;;;;;;4.90;4.40;;;35.50;58.20;;;;;;4974998;28;20368;-79
2023/08/21 10:21:21;;;;;;;5.63;4.22;;;35.60;57.60;;;;;;4976767;28;20027;-78
2023/08/21 10:23:53;;;;;;;4.93;3.92;;;35.70;57.10;;;;;;4965198;28;20538;-78
2023/08/21 10:26:20;;;;;;;4.43;3.85;;;35.80;57.70;;;;;;4975002;28;20138;-79
2023/08/21 10:29:15;;;;;;;4.88;3.67;;;35.90;57.20;;;;;;4974866;28;20102;-78
2023/08/21 10:31:43;;;;;;;4.47;3.45;;;36.00;57.40;;;;;;4965987;28;20050;-79
2023/08/21 10:34:11;;;;;;;9.18;4.53;;;36.10;57.00;;;;;;4977832;28;20057;-78
2023/08/21 10:36:42;;;;;;;5.45;4.20;;;36.20;56.00;;;;;;4974430;28;20109;-78
2023/08/21 10:39:19;;;;;;;5.22;3.50;;;36.30;56.40;;;;;;4972028;28;20089;-78
2023/08/21 10:42:01;;;;;;;5.10;4.55;;;36.40;56.10;;;;;;4973124;28;20033;-78
2023/08/21 10:44:59;;;;;;;4.32;3.92;;;36.50;53.70;;;;;;4976008;28;20141;-78
2023/08/21 10:47:27;;;;;;;3.72;3.28;;;36.50;55.00;;;;;;4957996;28;20035;-78
2023/08/21 10:49:58;;;;;;;7.55;3.80;;;36.50;55.80;;;;;;4980953;28;20022;-78
2023/08/21 10:52:26;;;;;;;3.90;3.58;;;36.60;55.60;;;;;;4992073;28;20023;-78
2023/08/21 10:54:54;;;;;;;11.38;5.50;;;36.80;55.80;;;;;;4958021;28;20430;-78
2023/08/21 10:57:21;;;;;;;5.05;4.55;;;36.80;52.70;;;;;;4975519;28;20468;-78
2023/08/21 11:00:00;;;;;;;4.65;3.95;;;36.70;54.00;;;;;;4974725;28;20089;-78
2023/08/21 11:02:29;;;;;;;5.10;3.40;;;36.70;54.40;;;;;;4975540;28;20026;-78
2023/08/21 11:04:55;;;;;;;3.35;3.05;;;36.90;54.80;;;;;;4981659;28;20058;-78
2023/08/21 11:07:21;;;;;;;8.18;3.70;;;37.00;54.60;;;;;;4991592;28;20475;-79
2023/08/21 11:09:50;;;;;;;4.65;3.75;;;37.20;54.70;;;;;;4992789;28;20079;-79
2023/08/21 11:12:22;;;;;;;3.50;3.30;;;37.40;54.40;;;;;;4975793;28;20034;-79
2023/08/21 11:14:48;;;;;;;4.97;4.15;;;37.50;52.60;;;;;;5007657;28;20060;-80
2023/08/21 11:17:14;;;;;;;3.92;3.33;;;37.60;53.00;;;;;;5014265;28;20022;-79
2023/08/21 11:19:40;;;;;;;4.65;3.55;;;37.60;52.70;;;;;;4995507;28;20402;-79
2023/08/21 11:22:07;;;;;;;6.32;4.55;;;37.70;53.20;;;;;;4995511;28;20022;-80
2023/08/21 11:24:44;;;;;;;4.85;3.50;;;37.90;51.30;;;;;;5005234;28;20030;-79
2023/08/21 11:27:13;;;;;;;4.80;3.88;;;38.00;53.10;;;;;;4985821;28;20087;-79
2023/08/21 11:29:42;;;;;;;5.03;3.42;;;38.20;53.40;;;;;;5008046;28;20129;-79
2023/08/21 11:32:19;;;;;;;4.18;3.78;;;38.40;52.50;;;;;;4993014;28;20018;-79
2023/08/21 11:34:50;;;;;;;6.13;3.58;;;38.70;52.10;;;;;;5007263;28;20112;-79
2023/08/21 11:37:22;;;;;;;3.50;3.20;;;39.00;52.30;;;;;;5001644;28;20026;-79
2023/08/21 11:39:50;;;;;;;9.40;3.47;;;39.20;52.40;;;;;;5009476;28;20038;-79
2023/08/21 11:42:16;;;;;;;4.45;4.00;;;39.50;52.50;;;;;;4994360;28;20018;-79
2023/08/21 11:45:01;;;;;;;5.32;4.15;;;39.80;51.70;;;;;;4994229;28;20490;-80
2023/08/21 11:47:34;;;;;;;5.88;3.63;;;40.00;50.70;;;;;;4993858;28;20038;-79
2023/08/21 11:50:09;;;;;;;3.97;3.58;;;40.30;50.10;;;;;;4993915;28;20486;-79
2023/08/21 11:52:38;;;;;;;4.45;3.47;;;40.50;50.30;;;;;;4994111;28;20027;-79
2023/08/21 11:55:11;;;;;;;4.95;3.47;;;40.70;49.90;;;;;;4992444;28;20065;-79
2023/08/21 11:58:01;;;;;;;3.80;3.50;;;40.90;49.60;;;;;;4992737;28;20077;-84
2023/08/21 12:00:29;;;;;;;3.65;3.33;;;41.20;48.20;;;;;;4992154;28;20061;-84
2023/08/21 12:03:00;;;;;;;3.47;3.20;;;41.40;49.40;;;;;;5000516;28;20018;-83
2023/08/21 12:05:27;;;;;;;4.65;3.70;;;41.50;48.70;;;;;;5013005;28;20165;-83
2023/08/21 12:07:54;;;;;;;4.40;3.50;;;41.70;48.10;;;;;;5013781;28;20061;-84
2023/08/21 12:10:27;;;;;;;4.13;3.47;;;41.90;47.70;;;;;;5013853;28;20029;-83
2023/08/21 12:12:54;;;;;;;4.80;4.00;;;41.90;47.80;;;;;;5013730;28;20387;-84
2023/08/21 12:15:20;;;;;;;4.28;3.88;;;42.00;48.60;;;;;;5013514;28;20100;-84
2023/08/21 12:17:45;;;;;;;4.30;3.65;;;42.00;48.50;;;;;;5012982;28;20030;-84
2023/08/21 12:20:11;;;;;;;4.00;3.60;;;42.10;47.90;;;;;;5013587;28;20026;-83
2023/08/21 12:22:42;;;;;;;5.47;3.70;;;42.20;47.50;;;;;;5013617;28;20034;-83
2023/08/21 12:25:08;;;;;;;4.10;3.55;;;42.20;47.50;;;;;;5013451;28;20025;-83
2023/08/21 12:27:34;;;;;;;4.47;4.07;;;42.30;47.30;;;;;;5013391;28;20026;-84
2023/08/21 12:30:00;;;;;;;6.78;3.90;;;42.40;46.70;;;;;;5008915;28;20041;-84
2023/08/21 12:32:25;;;;;;;4.18;2.97;;;42.40;45.80;;;;;;5008048;28;20061;-84
2023/08/21 12:34:52;;;;;;;5.78;3.22;;;42.40;45.00;;;;;;5011389;28;20393;-84
2023/08/21 12:37:17;;;;;;;3.60;3.30;;;42.40;45.50;;;;;;4995175;28;20034;-83
2023/08/21 12:39:43;;;;;;;4.32;3.50;;;42.50;45.20;;;;;;4986715;28;20105;-83
2023/08/21 12:42:09;;;;;;;5.57;3.28;;;42.50;44.80;;;;;;4991989;28;20026;-83
2023/08/21 12:44:35;;;;;;;4.18;3.78;;;42.50;45.20;;;;;;4974951;28;20026;-84
2023/08/21 12:47:01;;;;;;;5.15;3.35;;;42.60;45.30;;;;;;4992152;28;20483;-84